Weather History for Auburn-Lewiston, ME

Change the Weather History Date:

Tuesday, March 5, 2013

  Actual Average Record
Temperature  
Mean Temperature 36 °F -  
Max Temperature 41 °F 33 °F 42 °F (1997)
Min Temperature 30 °F 17 °F 0 °F (2009)
Degree Days  
Heating Degree Days 30    
Moisture  
Dew Point 28 °F    
Average Humidity 72    
Maximum Humidity 81    
Minimum Humidity 64    
Precipitation  
Precipitation 0.00 in - - ()
Sea Level Pressure  
Sea Level Pressure 29.94 in    
Wind  
Wind Speed 11 mph (North)    
Max Wind Speed 21 mph    
Max Gust Speed 29 mph    
Visibility 10 miles    
Events      
Averages and records for this station are not official NWS values.
T = Trace of Precipitation, MM = Missing Value Source: NWS Daily Summary

Daily Weather History Graph

Daily Weather History Graph

Search for Another Location

Airport:

Trip Planner

Search our weather history database for the weather conditions in past years. The results will help you decide how hot, cold, wet, or windy it might be!

Date:

Astronomy

Mar. 05, 2013 Rise Set
Actual Time 6:10 AM EST 5:34 PM EST
Civil Twilight 5:41 AM EST 6:03 PM EST
Nautical Twilight 5:08 AM EST 6:37 PM EST
Astronomical Twilight 4:35 AM EST 7:10 PM EST
Moon 1:29 AM EST (3/5) 11:01 AM EST (3/5)
Length of Visible Light 12h 21m
Length of Day
11h 24m
Last Quarter, 41% of the Moon is Illuminated
Mar 5
Last Quarter
Mar 11
New
Mar 19
First Quarter
Mar 27
Full
Apr 3
Last Quarter

Hourly Weather History & Observations

Time (EST) Temp. Windchill Dew Point Humidity Pressure Visibility Wind Dir Wind Speed Gust Speed Precip Events Conditions
12:15 AM 30.2 °F 20.8 °F 21.2 °F 69% 29.70 in 10.0 mi NNW 11.5 mph 18.4 mph N/A   Overcast
12:35 AM 30.2 °F 21.9 °F 21.2 °F 69% 29.71 in 10.0 mi NNW 9.2 mph - N/A   Overcast
12:55 AM 30.2 °F 23.4 °F 21.2 °F 69% 29.72 in 10.0 mi NNW 6.9 mph - N/A   Mostly Cloudy
1:15 AM 30.2 °F 22.6 °F 21.2 °F 69% 29.73 in 10.0 mi NNW 8.1 mph - N/A   Overcast
2:35 AM 32.0 °F 24.2 °F 21.2 °F 64% 29.74 in 10.0 mi NNW 9.2 mph - N/A   Overcast
2:55 AM 32.0 °F 23.6 °F 21.2 °F 64% 29.75 in 10.0 mi North 10.4 mph - N/A   Overcast
3:15 AM 33.8 °F 25.8 °F 23.0 °F 65% 29.76 in 10.0 mi NNW 10.4 mph - N/A   Overcast
3:35 AM 33.8 °F 25.8 °F 23.0 °F 65% 29.77 in 10.0 mi North 10.4 mph - N/A   Overcast
3:55 AM 33.8 °F 24.8 °F 23.0 °F 65% 29.78 in 10.0 mi North 12.7 mph 16.1 mph N/A   Overcast
4:15 AM 33.8 °F 26.4 °F 23.0 °F 65% 29.79 in 10.0 mi NNW 9.2 mph - N/A   Overcast
4:35 AM 33.8 °F 25.8 °F 23.0 °F 65% 29.81 in 10.0 mi NNW 10.4 mph - N/A   Mostly Cloudy
4:55 AM 33.8 °F 25.3 °F 23.0 °F 65% 29.82 in 10.0 mi NNW 11.5 mph 17.3 mph N/A   Overcast
5:15 AM 32.0 °F 23.0 °F 26.6 °F 80% 29.83 in 5.0 mi North 11.5 mph 18.4 mph N/A   Overcast
5:55 AM 32.0 °F 25.6 °F 26.6 °F 80% 29.85 in 10.0 mi NNW 6.9 mph - N/A   Overcast
6:15 AM 32.0 °F 24.2 °F 26.6 °F 80% 29.86 in 10.0 mi North 9.2 mph - N/A   Overcast
6:35 AM 33.8 °F 26.4 °F 26.6 °F 75% 29.87 in 10.0 mi NNW 9.2 mph - N/A   Overcast
6:55 AM 33.8 °F 26.4 °F 26.6 °F 75% 29.87 in 10.0 mi North 9.2 mph - N/A   Overcast
7:15 AM 33.8 °F 24.8 °F 26.6 °F 75% 29.88 in 10.0 mi NNW 12.7 mph - N/A   Overcast
7:35 AM 33.8 °F 25.8 °F 26.6 °F 75% 29.89 in 10.0 mi North 10.4 mph - N/A   Overcast
8:15 AM 35.6 °F 28.6 °F 28.4 °F 75% 29.91 in 10.0 mi North 9.2 mph - N/A   Overcast
8:35 AM 35.6 °F 28.6 °F 28.4 °F 75% 29.91 in 10.0 mi NNW 9.2 mph - N/A   Overcast
8:55 AM 35.6 °F 28.0 °F 28.4 °F 75% 29.91 in 10.0 mi North 10.4 mph 16.1 mph N/A   Overcast
9:15 AM 37.4 °F 27.8 °F 28.4 °F 70% 29.92 in 10.0 mi NNE 17.3 mph - N/A   Overcast
9:35 AM 37.4 °F 27.2 °F 28.4 °F 70% 29.92 in 10.0 mi NNE 19.6 mph - N/A   Overcast
9:55 AM 37.4 °F 27.2 °F 30.2 °F 75% 29.92 in 10.0 mi NNE 19.6 mph 28.8 mph N/A   Overcast
10:15 AM 39.2 °F 29.8 °F 28.4 °F 65% 29.93 in 10.0 mi NNE 18.4 mph 25.3 mph N/A   Overcast
10:35 AM 39.2 °F 29.8 °F 28.4 °F 65% 29.93 in 10.0 mi NNE 18.4 mph 23.0 mph N/A   Overcast
10:55 AM 39.2 °F 30.2 °F 28.4 °F 65% 29.93 in 10.0 mi NNE 17.3 mph - N/A   Overcast
11:15 AM 39.2 °F 29.3 °F 28.4 °F 65% 29.94 in 10.0 mi North 20.7 mph 26.5 mph N/A   Overcast
11:35 AM 39.2 °F 30.5 °F 28.4 °F 65% 29.95 in 10.0 mi North 16.1 mph - N/A   Overcast
11:55 AM 39.2 °F 31.6 °F 28.4 °F 65% 29.95 in 10.0 mi NNE 12.7 mph - N/A   Overcast
12:15 PM 39.2 °F 31.6 °F 28.4 °F 65% 29.95 in 10.0 mi NNE 12.7 mph - N/A   Overcast
12:35 PM 39.2 °F 31.6 °F 28.4 °F 65% 29.95 in 10.0 mi North 12.7 mph - N/A   Overcast
12:55 PM 39.2 °F 30.8 °F 30.2 °F 70% 29.96 in 10.0 mi North 15.0 mph - N/A   Overcast
1:15 PM 39.2 °F 29.6 °F 30.2 °F 70% 29.97 in 10.0 mi North 19.6 mph 23.0 mph N/A   Overcast
1:35 PM 37.4 °F 30.3 °F 30.2 °F 75% 29.97 in 10.0 mi North 10.4 mph - N/A   Mostly Cloudy
1:55 PM 39.2 °F 32.0 °F 32.0 °F 75% 29.98 in 10.0 mi NNE 11.5 mph 16.1 mph N/A   Overcast
2:15 PM 39.2 °F 31.6 °F 30.2 °F 70% 29.98 in 10.0 mi North 12.7 mph - N/A   Overcast
2:35 PM 39.2 °F 31.2 °F 30.2 °F 70% 29.98 in 10.0 mi NNE 13.8 mph - N/A   Mostly Cloudy
2:55 PM 41.0 °F 32.8 °F 30.2 °F 65% 29.98 in 10.0 mi NNE 16.1 mph 19.6 mph N/A   Overcast
3:15 PM 41.0 °F 33.9 °F 30.2 °F 65% 29.98 in 10.0 mi NNE 12.7 mph 19.6 mph N/A   Overcast
3:35 PM 41.0 °F 33.5 °F 30.2 °F 65% 29.98 in 10.0 mi NNE 13.8 mph - N/A   Mostly Cloudy
3:55 PM 41.0 °F 34.3 °F 30.2 °F 65% 29.99 in 10.0 mi NNE 11.5 mph - N/A   Overcast
4:15 PM 39.2 °F 34.2 °F 30.2 °F 70% 30.00 in 10.0 mi NNE 6.9 mph - N/A   Mostly Cloudy
4:35 PM 39.2 °F 33.6 °F 30.2 °F 70% 30.00 in 10.0 mi North 8.1 mph - N/A   Scattered Clouds
5:15 PM 39.2 °F 37.0 °F 30.2 °F 70% 30.01 in 10.0 mi NNW 3.5 mph - N/A   Mostly Cloudy
5:35 PM 39.2 °F 37.0 °F 30.2 °F 70% 30.02 in 10.0 mi NNW 3.5 mph - N/A   Overcast
5:55 PM 39.2 °F 35.9 °F 30.2 °F 70% 30.03 in 10.0 mi NNW 4.6 mph - N/A   Overcast
6:16 PM 39.2 °F 33.6 °F 32.0 °F 75% 30.04 in 10.0 mi NE 8.1 mph - N/A   Overcast
6:35 PM 39.2 °F 31.6 °F 30.2 °F 70% 30.05 in 10.0 mi North 12.7 mph 18.4 mph N/A   Overcast
7:15 PM 37.4 °F 32.1 °F 30.2 °F 75% 30.05 in 10.0 mi North 6.9 mph - N/A   Overcast
7:35 PM 37.4 °F 31.4 °F 30.2 °F 75% 30.05 in 10.0 mi North 8.1 mph - N/A   Overcast
7:55 PM 37.4 °F 32.1 °F 30.2 °F 75% 30.06 in 10.0 mi North 6.9 mph - N/A   Overcast
8:15 PM 37.4 °F 30.3 °F 30.2 °F 75% 30.06 in 10.0 mi North 10.4 mph - N/A   Mostly Cloudy
8:35 PM 37.4 °F 30.8 °F 32.0 °F 81% 30.06 in 10.0 mi North 9.2 mph - N/A   Overcast
8:56 PM 37.4 °F 30.8 °F 32.0 °F 81% 30.06 in 10.0 mi North 9.2 mph - N/A   Overcast
9:15 PM 37.4 °F 31.4 °F 32.0 °F 81% 30.06 in 10.0 mi NNE 8.1 mph - N/A   Overcast
9:35 PM 37.4 °F 29.8 °F 30.2 °F 75% 30.07 in 10.0 mi NNE 11.5 mph - N/A   Overcast
9:55 PM 37.4 °F 29.3 °F 30.2 °F 75% 30.07 in 10.0 mi NNE 12.7 mph 23.0 mph N/A   Overcast
10:15 PM 35.6 °F 27.5 °F 30.2 °F 81% 30.08 in 10.0 mi NNE 11.5 mph - N/A   Mostly Cloudy
10:35 PM 35.6 °F 28.6 °F 30.2 °F 81% 30.09 in 10.0 mi NE 9.2 mph - N/A   Overcast
11:15 PM 35.6 °F 28.6 °F 30.2 °F 81% 30.10 in 10.0 mi NNE 9.2 mph - N/A   Overcast
11:35 PM 35.6 °F 29.2 °F 30.2 °F 81% 30.10 in 10.0 mi NE 8.1 mph - N/A   Overcast
11:55 PM 35.6 °F 28.6 °F 30.2 °F 81% 30.11 in 7.0 mi NE 9.2 mph - N/A   Overcast